sensor_id;sensor_type;location;lat;lon;timestamp;P1;durP1;ratioP1;P2;durP2;ratioP2
78666;SDS011;67983;59.830;30.198;2023-04-24T00:02:15;5.80;;;2.28;;
78666;SDS011;67983;59.830;30.198;2023-04-24T00:04:45;4.07;;;2.15;;
78666;SDS011;67983;59.830;30.198;2023-04-24T00:07:12;3.60;;;1.88;;
78666;SDS011;67983;59.830;30.198;2023-04-24T00:09:42;3.85;;;2.13;;
78666;SDS011;67983;59.830;30.198;2023-04-24T00:12:09;4.68;;;1.98;;
78666;SDS011;67983;59.830;30.198;2023-04-24T00:14:36;2.75;;;1.70;;
78666;SDS011;67983;59.830;30.198;2023-04-24T00:17:08;3.70;;;2.00;;
78666;SDS011;67983;59.830;30.198;2023-04-24T00:19:35;3.53;;;1.63;;
78666;SDS011;67983;59.830;30.198;2023-04-24T00:22:03;4.28;;;2.40;;
78666;SDS011;67983;59.830;30.198;2023-04-24T00:24:30;4.88;;;1.75;;
78666;SDS011;67983;59.830;30.198;2023-04-24T00:26:59;4.40;;;2.33;;
78666;SDS011;67983;59.830;30.198;2023-04-24T00:29:28;4.22;;;2.00;;
78666;SDS011;67983;59.830;30.198;2023-04-24T00:31:54;5.38;;;1.77;;
78666;SDS011;67983;59.830;30.198;2023-04-24T00:34:21;2.95;;;1.67;;
78666;SDS011;67983;59.830;30.198;2023-04-24T00:36:48;2.40;;;1.42;;
78666;SDS011;67983;59.830;30.198;2023-04-24T00:39:22;4.80;;;2.08;;
78666;SDS011;67983;59.830;30.198;2023-04-24T00:41:52;4.53;;;2.30;;
78666;SDS011;67983;59.830;30.198;2023-04-24T00:44:22;3.45;;;1.75;;
78666;SDS011;67983;59.830;30.198;2023-04-24T00:46:49;4.57;;;2.25;;
78666;SDS011;67983;59.830;30.198;2023-04-24T00:49:20;6.18;;;1.67;;
78666;SDS011;67983;59.830;30.198;2023-04-24T00:51:48;2.75;;;1.77;;
78666;SDS011;67983;59.830;30.198;2023-04-24T00:54:17;2.85;;;1.70;;
78666;SDS011;67983;59.830;30.198;2023-04-24T00:56:46;4.20;;;2.35;;
78666;SDS011;67983;59.830;30.198;2023-04-24T00:59:13;4.93;;;2.17;;
78666;SDS011;67983;59.830;30.198;2023-04-24T01:01:43;2.85;;;1.80;;
78666;SDS011;67983;59.830;30.198;2023-04-24T01:04:12;3.40;;;1.88;;
78666;SDS011;67983;59.830;30.198;2023-04-24T01:06:41;3.88;;;1.90;;
78666;SDS011;67983;59.830;30.198;2023-04-24T01:09:10;4.10;;;1.92;;
78666;SDS011;67983;59.830;30.198;2023-04-24T01:11:39;3.70;;;1.95;;
78666;SDS011;67983;59.830;30.198;2023-04-24T01:14:08;2.63;;;1.60;;
78666;SDS011;67983;59.830;30.198;2023-04-24T01:16:36;3.00;;;1.90;;
78666;SDS011;67983;59.830;30.198;2023-04-24T01:19:07;3.65;;;2.20;;
78666;SDS011;67983;59.830;30.198;2023-04-24T01:21:37;4.32;;;2.22;;
78666;SDS011;67983;59.830;30.198;2023-04-24T01:24:06;6.07;;;1.95;;
78666;SDS011;67983;59.830;30.198;2023-04-24T01:26:33;7.22;;;2.50;;
78666;SDS011;67983;59.830;30.198;2023-04-24T01:29:01;3.10;;;1.77;;
78666;SDS011;67983;59.830;30.198;2023-04-24T01:31:28;4.88;;;2.35;;
78666;SDS011;67983;59.830;30.198;2023-04-24T01:34:00;6.40;;;2.40;;
78666;SDS011;67983;59.830;30.198;2023-04-24T01:36:27;4.10;;;2.08;;
78666;SDS011;67983;59.830;30.198;2023-04-24T01:38:56;5.30;;;2.00;;
78666;SDS011;67983;59.830;30.198;2023-04-24T01:41:27;4.38;;;2.22;;
78666;SDS011;67983;59.830;30.198;2023-04-24T01:43:55;8.48;;;2.28;;
78666;SDS011;67983;59.830;30.198;2023-04-24T01:46:23;4.88;;;2.45;;
78666;SDS011;67983;59.830;30.198;2023-04-24T01:48:51;3.55;;;2.05;;
78666;SDS011;67983;59.830;30.198;2023-04-24T01:51:19;4.50;;;2.25;;
78666;SDS011;67983;59.830;30.198;2023-04-24T01:53:46;4.30;;;2.30;;
78666;SDS011;67983;59.830;30.198;2023-04-24T01:56:14;3.80;;;2.17;;
78666;SDS011;67983;59.830;30.198;2023-04-24T01:58:42;3.10;;;2.08;;
78666;SDS011;67983;59.830;30.198;2023-04-24T02:01:17;4.13;;;1.88;;
78666;SDS011;67983;59.830;30.198;2023-04-24T02:03:46;5.90;;;2.22;;
78666;SDS011;67983;59.830;30.198;2023-04-24T02:06:14;3.25;;;1.83;;
78666;SDS011;67983;59.830;30.198;2023-04-24T02:08:41;3.45;;;2.22;;
78666;SDS011;67983;59.830;30.198;2023-04-24T02:11:09;7.53;;;2.60;;
78666;SDS011;67983;59.830;30.198;2023-04-24T02:13:39;5.05;;;2.55;;
78666;SDS011;67983;59.830;30.198;2023-04-24T02:16:07;4.28;;;1.85;;
78666;SDS011;67983;59.830;30.198;2023-04-24T02:18:36;3.33;;;2.17;;
78666;SDS011;67983;59.830;30.198;2023-04-24T02:21:04;6.88;;;2.15;;
78666;SDS011;67983;59.830;30.198;2023-04-24T02:23:34;6.85;;;2.40;;
78666;SDS011;67983;59.830;30.198;2023-04-24T02:26:00;10.02;;;2.20;;
78666;SDS011;67983;59.830;30.198;2023-04-24T02:28:29;3.88;;;2.42;;
78666;SDS011;67983;59.830;30.198;2023-04-24T02:30:56;3.47;;;2.00;;
78666;SDS011;67983;59.830;30.198;2023-04-24T02:33:25;8.00;;;2.50;;
78666;SDS011;67983;59.830;30.198;2023-04-24T02:35:52;5.60;;;2.55;;
78666;SDS011;67983;59.830;30.198;2023-04-24T02:38:20;4.70;;;2.15;;
78666;SDS011;67983;59.830;30.198;2023-04-24T02:41:12;6.32;;;2.33;;
78666;SDS011;67983;59.830;30.198;2023-04-24T02:43:41;3.45;;;1.98;;
78666;SDS011;67983;59.830;30.198;2023-04-24T02:46:11;5.05;;;2.53;;
78666;SDS011;67983;59.830;30.198;2023-04-24T02:48:40;2.47;;;2.05;;
78666;SDS011;67983;59.830;30.198;2023-04-24T02:51:08;3.95;;;2.30;;
78666;SDS011;67983;59.830;30.198;2023-04-24T02:53:35;4.60;;;2.10;;
78666;SDS011;67983;59.830;30.198;2023-04-24T02:56:02;3.90;;;2.28;;
78666;SDS011;67983;59.830;30.198;2023-04-24T02:58:29;4.78;;;2.42;;
78666;SDS011;67983;59.830;30.198;2023-04-24T03:00:56;4.47;;;2.35;;
78666;SDS011;67983;59.830;30.198;2023-04-24T03:03:24;4.65;;;2.13;;
78666;SDS011;67983;59.830;30.198;2023-04-24T03:05:53;4.13;;;2.85;;
78666;SDS011;67983;59.830;30.198;2023-04-24T03:08:21;9.45;;;2.75;;
78666;SDS011;67983;59.830;30.198;2023-04-24T03:10:48;4.72;;;2.22;;
78666;SDS011;67983;59.830;30.198;2023-04-24T03:13:15;7.85;;;2.70;;
78666;SDS011;67983;59.830;30.198;2023-04-24T03:15:43;4.22;;;2.40;;
78666;SDS011;67983;59.830;30.198;2023-04-24T03:18:12;4.47;;;2.80;;
78666;SDS011;67983;59.830;30.198;2023-04-24T03:20:41;4.38;;;2.83;;
78666;SDS011;67983;59.830;30.198;2023-04-24T03:23:14;6.10;;;2.42;;
78666;SDS011;67983;59.830;30.198;2023-04-24T03:25:41;7.97;;;4.25;;
78666;SDS011;67983;59.830;30.198;2023-04-24T03:28:11;5.45;;;2.83;;
78666;SDS011;67983;59.830;30.198;2023-04-24T03:30:51;6.20;;;3.08;;
78666;SDS011;67983;59.830;30.198;2023-04-24T03:33:20;4.03;;;2.35;;
78666;SDS011;67983;59.830;30.198;2023-04-24T03:35:56;5.82;;;3.08;;
78666;SDS011;67983;59.830;30.198;2023-04-24T03:38:26;5.57;;;3.08;;
78666;SDS011;67983;59.830;30.198;2023-04-24T03:40:57;6.05;;;2.80;;
78666;SDS011;67983;59.830;30.198;2023-04-24T03:43:47;4.47;;;2.65;;
78666;SDS011;67983;59.830;30.198;2023-04-24T03:46:16;6.18;;;2.80;;
78666;SDS011;67983;59.830;30.198;2023-04-24T03:48:51;6.32;;;2.80;;
78666;SDS011;67983;59.830;30.198;2023-04-24T03:53:53;4.28;;;2.40;;
78666;SDS011;67983;59.830;30.198;2023-04-24T03:56:22;5.63;;;3.25;;
78666;SDS011;67983;59.830;30.198;2023-04-24T03:58:51;5.55;;;3.25;;
78666;SDS011;67983;59.830;30.198;2023-04-24T04:01:21;9.35;;;3.90;;
78666;SDS011;67983;59.830;30.198;2023-04-24T04:04:20;5.00;;;2.65;;
78666;SDS011;67983;59.830;30.198;2023-04-24T04:06:49;5.90;;;3.00;;
78666;SDS011;67983;59.830;30.198;2023-04-24T04:09:20;4.95;;;2.75;;
78666;SDS011;67983;59.830;30.198;2023-04-24T04:11:49;4.60;;;2.70;;
78666;SDS011;67983;59.830;30.198;2023-04-24T04:14:16;7.38;;;3.50;;
78666;SDS011;67983;59.830;30.198;2023-04-24T04:16:46;5.00;;;2.90;;
78666;SDS011;67983;59.830;30.198;2023-04-24T04:19:16;7.78;;;2.88;;
78666;SDS011;67983;59.830;30.198;2023-04-24T04:21:44;3.50;;;2.33;;
78666;SDS011;67983;59.830;30.198;2023-04-24T04:24:30;4.25;;;2.70;;
78666;SDS011;67983;59.830;30.198;2023-04-24T04:26:58;5.97;;;3.80;;
78666;SDS011;67983;59.830;30.198;2023-04-24T04:29:32;8.07;;;3.60;;
78666;SDS011;67983;59.830;30.198;2023-04-24T04:32:01;6.28;;;3.10;;
78666;SDS011;67983;59.830;30.198;2023-04-24T04:34:29;6.82;;;2.75;;
78666;SDS011;67983;59.830;30.198;2023-04-24T04:37:00;5.55;;;3.17;;
78666;SDS011;67983;59.830;30.198;2023-04-24T04:39:46;6.63;;;3.15;;
78666;SDS011;67983;59.830;30.198;2023-04-24T04:42:21;5.47;;;3.42;;
78666;SDS011;67983;59.830;30.198;2023-04-24T04:44:49;4.47;;;2.45;;
78666;SDS011;67983;59.830;30.198;2023-04-24T04:47:20;11.27;;;4.43;;
78666;SDS011;67983;59.830;30.198;2023-04-24T04:49:50;5.80;;;2.47;;
78666;SDS011;67983;59.830;30.198;2023-04-24T04:52:21;4.93;;;2.95;;
78666;SDS011;67983;59.830;30.198;2023-04-24T04:55:01;3.75;;;2.63;;
78666;SDS011;67983;59.830;30.198;2023-04-24T04:57:49;9.82;;;3.33;;
78666;SDS011;67983;59.830;30.198;2023-04-24T05:00:17;7.72;;;3.05;;
78666;SDS011;67983;59.830;30.198;2023-04-24T05:02:51;4.78;;;3.20;;
78666;SDS011;67983;59.830;30.198;2023-04-24T05:05:19;7.18;;;3.33;;
78666;SDS011;67983;59.830;30.198;2023-04-24T05:07:46;7.25;;;2.75;;
78666;SDS011;67983;59.830;30.198;2023-04-24T05:10:15;4.93;;;2.70;;
78666;SDS011;67983;59.830;30.198;2023-04-24T05:12:42;6.35;;;3.25;;
78666;SDS011;67983;59.830;30.198;2023-04-24T05:15:09;6.50;;;3.38;;
78666;SDS011;67983;59.830;30.198;2023-04-24T05:17:37;6.22;;;3.08;;
78666;SDS011;67983;59.830;30.198;2023-04-24T05:20:06;5.78;;;3.08;;
78666;SDS011;67983;59.830;30.198;2023-04-24T05:22:35;6.82;;;3.28;;
78666;SDS011;67983;59.830;30.198;2023-04-24T05:25:02;7.65;;;3.00;;
78666;SDS011;67983;59.830;30.198;2023-04-24T05:27:53;7.07;;;3.08;;
78666;SDS011;67983;59.830;30.198;2023-04-24T05:30:26;8.23;;;2.78;;
78666;SDS011;67983;59.830;30.198;2023-04-24T05:33:02;9.27;;;3.67;;
78666;SDS011;67983;59.830;30.198;2023-04-24T05:35:32;5.40;;;2.92;;
78666;SDS011;67983;59.830;30.198;2023-04-24T05:38:00;3.95;;;2.78;;
78666;SDS011;67983;59.830;30.198;2023-04-24T05:40:30;5.15;;;2.67;;
78666;SDS011;67983;59.830;30.198;2023-04-24T05:43:01;7.57;;;2.95;;
78666;SDS011;67983;59.830;30.198;2023-04-24T05:45:28;4.53;;;2.45;;
78666;SDS011;67983;59.830;30.198;2023-04-24T05:50:24;4.55;;;2.75;;
78666;SDS011;67983;59.830;30.198;2023-04-24T05:52:51;4.20;;;2.80;;
78666;SDS011;67983;59.830;30.198;2023-04-24T05:55:25;7.65;;;3.25;;
78666;SDS011;67983;59.830;30.198;2023-04-24T05:57:53;12.07;;;3.15;;
78666;SDS011;67983;59.830;30.198;2023-04-24T06:00:25;3.42;;;2.30;;
78666;SDS011;67983;59.830;30.198;2023-04-24T06:02:59;10.50;;;3.22;;
78666;SDS011;67983;59.830;30.198;2023-04-24T06:05:27;10.57;;;4.15;;
78666;SDS011;67983;59.830;30.198;2023-04-24T06:07:54;4.07;;;2.67;;
78666;SDS011;67983;59.830;30.198;2023-04-24T06:10:25;6.00;;;2.78;;
78666;SDS011;67983;59.830;30.198;2023-04-24T06:12:54;4.45;;;2.50;;
78666;SDS011;67983;59.830;30.198;2023-04-24T06:15:30;5.20;;;2.67;;
78666;SDS011;67983;59.830;30.198;2023-04-24T06:20:33;6.95;;;2.97;;
78666;SDS011;67983;59.830;30.198;2023-04-24T06:23:03;6.60;;;3.17;;
78666;SDS011;67983;59.830;30.198;2023-04-24T06:25:32;7.78;;;2.85;;
78666;SDS011;67983;59.830;30.198;2023-04-24T06:27:59;5.75;;;2.58;;
78666;SDS011;67983;59.830;30.198;2023-04-24T06:30:29;3.78;;;2.55;;
78666;SDS011;67983;59.830;30.198;2023-04-24T06:33:00;5.85;;;2.60;;
78666;SDS011;67983;59.830;30.198;2023-04-24T06:42:07;4.05;;;2.50;;
78666;SDS011;67983;59.830;30.198;2023-04-24T06:44:39;3.55;;;2.60;;
78666;SDS011;67983;59.830;30.198;2023-04-24T06:47:08;6.43;;;2.20;;
78666;SDS011;67983;59.830;30.198;2023-04-24T06:49:39;6.03;;;2.67;;
78666;SDS011;67983;59.830;30.198;2023-04-24T06:52:13;8.20;;;2.97;;
78666;SDS011;67983;59.830;30.198;2023-04-24T06:54:41;6.50;;;2.42;;
78666;SDS011;67983;59.830;30.198;2023-04-24T06:57:08;9.02;;;2.47;;
78666;SDS011;67983;59.830;30.198;2023-04-24T06:59:40;3.30;;;2.30;;
78666;SDS011;67983;59.830;30.198;2023-04-24T07:02:19;6.47;;;2.50;;
78666;SDS011;67983;59.830;30.198;2023-04-24T07:04:55;10.93;;;2.60;;
78666;SDS011;67983;59.830;30.198;2023-04-24T07:07:23;5.57;;;2.70;;
78666;SDS011;67983;59.830;30.198;2023-04-24T07:09:56;5.05;;;2.90;;
78666;SDS011;67983;59.830;30.198;2023-04-24T07:12:29;3.28;;;2.00;;
78666;SDS011;67983;59.830;30.198;2023-04-24T07:14:56;3.80;;;2.10;;
78666;SDS011;67983;59.830;30.198;2023-04-24T07:17:25;6.75;;;2.53;;
78666;SDS011;67983;59.830;30.198;2023-04-24T07:19:52;8.60;;;2.75;;
78666;SDS011;67983;59.830;30.198;2023-04-24T07:22:19;5.63;;;2.10;;
78666;SDS011;67983;59.830;30.198;2023-04-24T07:24:46;9.02;;;2.28;;
78666;SDS011;67983;59.830;30.198;2023-04-24T07:27:16;8.05;;;2.50;;
78666;SDS011;67983;59.830;30.198;2023-04-24T07:29:43;6.90;;;2.83;;
78666;SDS011;67983;59.830;30.198;2023-04-24T07:32:14;9.07;;;2.70;;
78666;SDS011;67983;59.830;30.198;2023-04-24T07:34:43;5.07;;;2.47;;
78666;SDS011;67983;59.830;30.198;2023-04-24T07:43:14;10.57;;;3.30;;
78666;SDS011;67983;59.830;30.198;2023-04-24T07:45:42;11.82;;;2.53;;
78666;SDS011;67983;59.830;30.198;2023-04-24T07:48:09;12.00;;;2.70;;
78666;SDS011;67983;59.830;30.198;2023-04-24T07:50:38;5.43;;;2.63;;
78666;SDS011;67983;59.830;30.198;2023-04-24T07:53:07;8.13;;;2.35;;
78666;SDS011;67983;59.830;30.198;2023-04-24T07:56:00;7.30;;;3.00;;
78666;SDS011;67983;59.830;30.198;2023-04-24T07:58:30;10.73;;;2.90;;
78666;SDS011;67983;59.830;30.198;2023-04-24T08:00:59;8.25;;;2.42;;
78666;SDS011;67983;59.830;30.198;2023-04-24T08:03:26;5.57;;;2.35;;
78666;SDS011;67983;59.830;30.198;2023-04-24T08:11:43;6.25;;;2.47;;
78666;SDS011;67983;59.830;30.198;2023-04-24T08:17:08;6.28;;;2.75;;
78666;SDS011;67983;59.830;30.198;2023-04-24T08:19:35;8.68;;;2.22;;
78666;SDS011;67983;59.830;30.198;2023-04-24T08:22:05;26.40;;;3.30;;
78666;SDS011;67983;59.830;30.198;2023-04-24T08:27:37;13.57;;;4.05;;
78666;SDS011;67983;59.830;30.198;2023-04-24T08:32:32;23.85;;;3.65;;
78666;SDS011;67983;59.830;30.198;2023-04-24T08:34:59;7.85;;;2.95;;
78666;SDS011;67983;59.830;30.198;2023-04-24T08:37:27;5.95;;;2.17;;
78666;SDS011;67983;59.830;30.198;2023-04-24T08:39:55;10.25;;;2.33;;
78666;SDS011;67983;59.830;30.198;2023-04-24T08:42:23;9.35;;;3.15;;
78666;SDS011;67983;59.830;30.198;2023-04-24T08:44:51;3.85;;;1.98;;
78666;SDS011;67983;59.830;30.198;2023-04-24T08:47:20;8.18;;;3.30;;
78666;SDS011;67983;59.830;30.198;2023-04-24T08:49:49;10.35;;;2.95;;
78666;SDS011;67983;59.830;30.198;2023-04-24T08:52:20;5.78;;;2.50;;
78666;SDS011;67983;59.830;30.198;2023-04-24T08:54:50;12.15;;;1.83;;
78666;SDS011;67983;59.830;30.198;2023-04-24T08:57:19;6.88;;;2.70;;
78666;SDS011;67983;59.830;30.198;2023-04-24T08:59:47;7.97;;;2.72;;
78666;SDS011;67983;59.830;30.198;2023-04-24T09:02:15;15.13;;;3.00;;
78666;SDS011;67983;59.830;30.198;2023-04-24T09:04:43;7.18;;;2.33;;
78666;SDS011;67983;59.830;30.198;2023-04-24T09:07:12;7.13;;;2.28;;
78666;SDS011;67983;59.830;30.198;2023-04-24T09:09:44;9.98;;;2.58;;
78666;SDS011;67983;59.830;30.198;2023-04-24T09:12:15;7.63;;;2.85;;
78666;SDS011;67983;59.830;30.198;2023-04-24T09:14:43;11.15;;;3.08;;
78666;SDS011;67983;59.830;30.198;2023-04-24T09:17:11;5.13;;;2.20;;
78666;SDS011;67983;59.830;30.198;2023-04-24T09:19:38;11.00;;;2.95;;
78666;SDS011;67983;59.830;30.198;2023-04-24T09:22:08;4.88;;;2.65;;
78666;SDS011;67983;59.830;30.198;2023-04-24T09:24:36;9.05;;;2.72;;
78666;SDS011;67983;59.830;30.198;2023-04-24T09:27:03;13.90;;;3.28;;
78666;SDS011;67983;59.830;30.198;2023-04-24T09:29:32;10.57;;;2.45;;
78666;SDS011;67983;59.830;30.198;2023-04-24T09:32:10;6.90;;;2.75;;
78666;SDS011;67983;59.830;30.198;2023-04-24T09:34:47;13.85;;;2.50;;
78666;SDS011;67983;59.830;30.198;2023-04-24T09:37:20;9.45;;;2.90;;
78666;SDS011;67983;59.830;30.198;2023-04-24T09:40:07;5.32;;;2.97;;
78666;SDS011;67983;59.830;30.198;2023-04-24T09:42:37;4.78;;;2.85;;
78666;SDS011;67983;59.830;30.198;2023-04-24T09:45:09;5.82;;;2.55;;
78666;SDS011;67983;59.830;30.198;2023-04-24T09:47:41;7.18;;;2.33;;
78666;SDS011;67983;59.830;30.198;2023-04-24T09:50:12;5.57;;;2.40;;
78666;SDS011;67983;59.830;30.198;2023-04-24T09:52:42;6.03;;;2.90;;
78666;SDS011;67983;59.830;30.198;2023-04-24T09:55:16;5.90;;;2.95;;
78666;SDS011;67983;59.830;30.198;2023-04-24T09:57:52;5.95;;;2.38;;
78666;SDS011;67983;59.830;30.198;2023-04-24T10:00:25;5.00;;;2.58;;
78666;SDS011;67983;59.830;30.198;2023-04-24T10:02:56;6.85;;;3.47;;
78666;SDS011;67983;59.830;30.198;2023-04-24T10:05:29;6.93;;;2.83;;
78666;SDS011;67983;59.830;30.198;2023-04-24T10:08:00;12.45;;;3.97;;
78666;SDS011;67983;59.830;30.198;2023-04-24T10:10:29;8.77;;;2.60;;
78666;SDS011;67983;59.830;30.198;2023-04-24T10:12:57;7.70;;;3.17;;
78666;SDS011;67983;59.830;30.198;2023-04-24T10:15:27;10.05;;;3.00;;
78666;SDS011;67983;59.830;30.198;2023-04-24T10:17:58;6.05;;;3.15;;
78666;SDS011;67983;59.830;30.198;2023-04-24T10:20:26;10.60;;;3.47;;
78666;SDS011;67983;59.830;30.198;2023-04-24T10:22:56;5.38;;;2.72;;
78666;SDS011;67983;59.830;30.198;2023-04-24T10:25:27;6.18;;;3.05;;
78666;SDS011;67983;59.830;30.198;2023-04-24T10:27:56;9.80;;;2.80;;
78666;SDS011;67983;59.830;30.198;2023-04-24T10:30:25;10.05;;;3.55;;
78666;SDS011;67983;59.830;30.198;2023-04-24T10:33:01;11.35;;;3.30;;
78666;SDS011;67983;59.830;30.198;2023-04-24T10:35:31;9.80;;;3.40;;
78666;SDS011;67983;59.830;30.198;2023-04-24T10:38:01;4.60;;;2.53;;
78666;SDS011;67983;59.830;30.198;2023-04-24T10:40:33;7.05;;;3.05;;
78666;SDS011;67983;59.830;30.198;2023-04-24T10:43:05;6.90;;;2.50;;
78666;SDS011;67983;59.830;30.198;2023-04-24T10:45:39;3.65;;;2.25;;
78666;SDS011;67983;59.830;30.198;2023-04-24T10:48:06;10.63;;;3.53;;
78666;SDS011;67983;59.830;30.198;2023-04-24T10:50:42;8.55;;;2.80;;
78666;SDS011;67983;59.830;30.198;2023-04-24T10:53:12;7.88;;;3.63;;
78666;SDS011;67983;59.830;30.198;2023-04-24T10:55:43;5.57;;;3.33;;
78666;SDS011;67983;59.830;30.198;2023-04-24T10:58:15;6.05;;;2.60;;
78666;SDS011;67983;59.830;30.198;2023-04-24T11:00:54;7.28;;;3.08;;
78666;SDS011;67983;59.830;30.198;2023-04-24T11:03:27;6.30;;;2.33;;
78666;SDS011;67983;59.830;30.198;2023-04-24T11:05:57;9.15;;;3.05;;
78666;SDS011;67983;59.830;30.198;2023-04-24T11:08:27;8.60;;;3.50;;
78666;SDS011;67983;59.830;30.198;2023-04-24T11:11:00;7.05;;;3.30;;
78666;SDS011;67983;59.830;30.198;2023-04-24T11:16:35;3.70;;;2.30;;
78666;SDS011;67983;59.830;30.198;2023-04-24T11:19:06;3.42;;;2.45;;
78666;SDS011;67983;59.830;30.198;2023-04-24T11:21:40;7.05;;;3.30;;
78666;SDS011;67983;59.830;30.198;2023-04-24T11:24:24;8.65;;;3.20;;
78666;SDS011;67983;59.830;30.198;2023-04-24T11:26:54;4.72;;;2.85;;
78666;SDS011;67983;59.830;30.198;2023-04-24T11:29:23;5.95;;;2.30;;
78666;SDS011;67983;59.830;30.198;2023-04-24T11:32:23;6.05;;;3.30;;
78666;SDS011;67983;59.830;30.198;2023-04-24T11:34:53;7.03;;;3.00;;
78666;SDS011;67983;59.830;30.198;2023-04-24T11:37:21;5.90;;;3.03;;
78666;SDS011;67983;59.830;30.198;2023-04-24T11:39:50;6.30;;;3.40;;
78666;SDS011;67983;59.830;30.198;2023-04-24T11:42:18;4.35;;;2.67;;
78666;SDS011;67983;59.830;30.198;2023-04-24T11:44:49;8.15;;;2.58;;
78666;SDS011;67983;59.830;30.198;2023-04-24T11:47:31;3.75;;;2.90;;
78666;SDS011;67983;59.830;30.198;2023-04-24T11:49:59;5.97;;;3.00;;
78666;SDS011;67983;59.830;30.198;2023-04-24T11:52:27;6.85;;;2.80;;
78666;SDS011;67983;59.830;30.198;2023-04-24T11:54:54;7.10;;;3.13;;
78666;SDS011;67983;59.830;30.198;2023-04-24T11:57:21;4.90;;;2.65;;
78666;SDS011;67983;59.830;30.198;2023-04-24T11:59:53;3.60;;;3.00;;
78666;SDS011;67983;59.830;30.198;2023-04-24T12:02:24;6.43;;;2.88;;
78666;SDS011;67983;59.830;30.198;2023-04-24T12:04:54;6.28;;;2.42;;
78666;SDS011;67983;59.830;30.198;2023-04-24T12:07:23;3.78;;;2.88;;
78666;SDS011;67983;59.830;30.198;2023-04-24T12:09:56;5.07;;;2.65;;
78666;SDS011;67983;59.830;30.198;2023-04-24T12:12:25;6.30;;;2.92;;
78666;SDS011;67983;59.830;30.198;2023-04-24T12:14:53;11.52;;;3.70;;
78666;SDS011;67983;59.830;30.198;2023-04-24T12:17:32;4.43;;;2.70;;
78666;SDS011;67983;59.830;30.198;2023-04-24T12:20:05;6.10;;;2.60;;
78666;SDS011;67983;59.830;30.198;2023-04-24T12:22:44;4.28;;;2.75;;
78666;SDS011;67983;59.830;30.198;2023-04-24T12:25:13;2.95;;;1.92;;
78666;SDS011;67983;59.830;30.198;2023-04-24T12:27:41;7.68;;;2.50;;
78666;SDS011;67983;59.830;30.198;2023-04-24T12:30:11;5.60;;;3.13;;
78666;SDS011;67983;59.830;30.198;2023-04-24T12:32:41;7.78;;;3.22;;
78666;SDS011;67983;59.830;30.198;2023-04-24T12:35:11;8.25;;;3.13;;
78666;SDS011;67983;59.830;30.198;2023-04-24T12:37:41;8.32;;;3.10;;
78666;SDS011;67983;59.830;30.198;2023-04-24T12:40:35;5.15;;;2.80;;
78666;SDS011;67983;59.830;30.198;2023-04-24T12:43:14;7.68;;;3.17;;
78666;SDS011;67983;59.830;30.198;2023-04-24T12:45:51;5.00;;;3.05;;
78666;SDS011;67983;59.830;30.198;2023-04-24T12:48:18;5.65;;;3.05;;
78666;SDS011;67983;59.830;30.198;2023-04-24T12:50:48;7.07;;;3.08;;
78666;SDS011;67983;59.830;30.198;2023-04-24T12:53:15;6.03;;;3.33;;
78666;SDS011;67983;59.830;30.198;2023-04-24T12:55:45;10.45;;;4.28;;
78666;SDS011;67983;59.830;30.198;2023-04-24T12:58:18;7.68;;;3.65;;
78666;SDS011;67983;59.830;30.198;2023-04-24T13:00:50;7.97;;;4.13;;
78666;SDS011;67983;59.830;30.198;2023-04-24T13:03:17;6.38;;;4.13;;
78666;SDS011;67983;59.830;30.198;2023-04-24T13:05:46;7.43;;;3.83;;
78666;SDS011;67983;59.830;30.198;2023-04-24T13:08:14;5.63;;;4.60;;
78666;SDS011;67983;59.830;30.198;2023-04-24T13:10:42;6.70;;;4.75;;
78666;SDS011;67983;59.830;30.198;2023-04-24T13:13:09;8.00;;;5.05;;
78666;SDS011;67983;59.830;30.198;2023-04-24T13:15:38;7.38;;;3.90;;
78666;SDS011;67983;59.830;30.198;2023-04-24T13:18:05;7.90;;;5.35;;
78666;SDS011;67983;59.830;30.198;2023-04-24T13:20:37;5.55;;;3.88;;
78666;SDS011;67983;59.830;30.198;2023-04-24T13:23:06;5.28;;;3.17;;
78666;SDS011;67983;59.830;30.198;2023-04-24T13:25:36;6.75;;;5.28;;
78666;SDS011;67983;59.830;30.198;2023-04-24T13:28:05;8.32;;;5.22;;
78666;SDS011;67983;59.830;30.198;2023-04-24T13:30:33;9.65;;;5.68;;
78666;SDS011;67983;59.830;30.198;2023-04-24T13:33:02;9.15;;;5.80;;
78666;SDS011;67983;59.830;30.198;2023-04-24T13:35:29;12.85;;;6.57;;
78666;SDS011;67983;59.830;30.198;2023-04-24T13:37:57;9.82;;;5.22;;
78666;SDS011;67983;59.830;30.198;2023-04-24T13:40:27;11.98;;;5.85;;
78666;SDS011;67983;59.830;30.198;2023-04-24T13:42:55;9.10;;;5.32;;
78666;SDS011;67983;59.830;30.198;2023-04-24T13:45:26;14.68;;;6.78;;
78666;SDS011;67983;59.830;30.198;2023-04-24T13:48:17;12.40;;;6.85;;
78666;SDS011;67983;59.830;30.198;2023-04-24T13:50:46;8.30;;;6.18;;
78666;SDS011;67983;59.830;30.198;2023-04-24T13:53:15;12.20;;;6.40;;
78666;SDS011;67983;59.830;30.198;2023-04-24T13:55:43;7.03;;;4.70;;
78666;SDS011;67983;59.830;30.198;2023-04-24T13:58:25;9.02;;;5.07;;
78666;SDS011;67983;59.830;30.198;2023-04-24T14:00:54;7.43;;;5.13;;
78666;SDS011;67983;59.830;30.198;2023-04-24T14:06:37;10.68;;;5.65;;
78666;SDS011;67983;59.830;30.198;2023-04-24T14:09:05;11.07;;;6.38;;
78666;SDS011;67983;59.830;30.198;2023-04-24T14:11:36;8.82;;;5.40;;
78666;SDS011;67983;59.830;30.198;2023-04-24T14:14:05;11.73;;;5.72;;
78666;SDS011;67983;59.830;30.198;2023-04-24T14:16:33;9.93;;;6.55;;
78666;SDS011;67983;59.830;30.198;2023-04-24T14:19:01;7.85;;;5.38;;
78666;SDS011;67983;59.830;30.198;2023-04-24T14:21:28;9.48;;;5.78;;
78666;SDS011;67983;59.830;30.198;2023-04-24T14:23:58;8.32;;;5.35;;
78666;SDS011;67983;59.830;30.198;2023-04-24T14:26:28;10.60;;;5.65;;
78666;SDS011;67983;59.830;30.198;2023-04-24T14:29:08;7.28;;;5.13;;
78666;SDS011;67983;59.830;30.198;2023-04-24T14:31:37;10.10;;;7.88;;
78666;SDS011;67983;59.830;30.198;2023-04-24T14:34:04;11.02;;;7.57;;
78666;SDS011;67983;59.830;30.198;2023-04-24T14:36:35;11.68;;;6.88;;
78666;SDS011;67983;59.830;30.198;2023-04-24T14:39:03;11.50;;;7.60;;
78666;SDS011;67983;59.830;30.198;2023-04-24T14:41:33;14.38;;;7.88;;
78666;SDS011;67983;59.830;30.198;2023-04-24T14:44:01;12.05;;;7.90;;
78666;SDS011;67983;59.830;30.198;2023-04-24T14:46:34;11.48;;;7.45;;
78666;SDS011;67983;59.830;30.198;2023-04-24T14:49:03;10.07;;;7.63;;
78666;SDS011;67983;59.830;30.198;2023-04-24T14:51:31;9.77;;;6.55;;
78666;SDS011;67983;59.830;30.198;2023-04-24T14:54:01;15.00;;;9.82;;
78666;SDS011;67983;59.830;30.198;2023-04-24T14:56:28;9.30;;;6.95;;
78666;SDS011;67983;59.830;30.198;2023-04-24T14:58:55;9.15;;;6.65;;
78666;SDS011;67983;59.830;30.198;2023-04-24T15:01:28;10.40;;;6.85;;
78666;SDS011;67983;59.830;30.198;2023-04-24T15:03:57;11.30;;;5.57;;
78666;SDS011;67983;59.830;30.198;2023-04-24T15:09:18;9.10;;;6.57;;
78666;SDS011;67983;59.830;30.198;2023-04-24T15:11:50;9.90;;;5.68;;
78666;SDS011;67983;59.830;30.198;2023-04-24T15:16:45;7.95;;;5.60;;
78666;SDS011;67983;59.830;30.198;2023-04-24T15:19:14;13.35;;;5.05;;
78666;SDS011;67983;59.830;30.198;2023-04-24T15:21:42;7.78;;;5.45;;
78666;SDS011;67983;59.830;30.198;2023-04-24T15:24:12;9.13;;;6.97;;
78666;SDS011;67983;59.830;30.198;2023-04-24T15:26:43;13.20;;;7.10;;
78666;SDS011;67983;59.830;30.198;2023-04-24T15:29:11;10.30;;;6.07;;
78666;SDS011;67983;59.830;30.198;2023-04-24T15:31:42;9.43;;;6.03;;
78666;SDS011;67983;59.830;30.198;2023-04-24T15:34:16;6.00;;;5.10;;
78666;SDS011;67983;59.830;30.198;2023-04-24T15:36:47;9.82;;;5.97;;
78666;SDS011;67983;59.830;30.198;2023-04-24T15:39:14;6.63;;;5.35;;